KHBR

Hobart Regional Airport

Hobart, Oklahoma, USA
METAR KHBR 212253Z AUTO 09009KT 7SM CLR 32/16 A3012 RMK AO2 SLP183 T03170161
Observed Flight Rules
Aug-21 @ 22:53 UTC (54 minutes ago) Visual Flight Rules
Wind Visibility Clouds
90° at 9 knots 7 miles
  • Clear skies
Temperatures Readings
Current 32°C / 90°F
Dewpoint 16°C / 61°F
Humidity 38%
Altimeter 30.12" Hg
Pressure 1018.3 hPa
Elevation 473
METAR KHBR 212253Z AUTO 09009KT 7SM CLR 32/16 A3012 RMK AO2 SLP183 T03170161
Observed Flight Rules
Aug-21 @ 22:53 UTC
(54 minutes ago)
VFR
Wind Visibility
90° at 9 knots 7 miles
Clouds
  • Clear skies
Temperature Dewpoint
32°C / 90°F 16°C / 61°F
Humidity Altimeter Pressure
38% 30.12" Hg 1018.3 hPa